Time;durP1;ratioP1;P1;durP2;ratioP2;P2;SDS_P1;SDS_P2;PMS_P1;PMS_P2;Temp;Humidity;BMP_temperature;BMP_pressure;BME280_temperature;BME280_humidity;BME280_pressure;Samples;Min_cycle;Max_cycle;Signal;HPM_P1;HPM_P2
2022/03/11 00:01:28;;;;;;;17.33;8.73;;;;;;;;;;5091077;27;95783;-75
2022/03/11 00:03:55;;;;;;;15.27;8.07;;;;;;;;;;5091711;27;96715;-76
2022/03/11 00:06:21;;;;;;;22.15;9.48;;;;;;;;;;5090264;27;97372;-76
2022/03/11 00:08:49;;;;;;;18.00;8.90;;;;;;;;;;5089646;27;96633;-75
2022/03/11 00:11:16;;;;;;;17.75;8.90;;;;;;;;;;5091164;27;96853;-75
2022/03/11 00:16:27;;;;;;;16.73;9.30;;;;;;;;;;5091506;27;95317;-74
2022/03/11 00:18:53;;;;;;;20.95;9.65;;;;;;;;;;5093683;27;96755;-74
2022/03/11 00:21:20;;;;;;;20.88;9.73;;;;;;;;;;5090790;27;95622;-76
2022/03/11 00:23:46;;;;;;;17.35;9.40;;;;;;;;;;5091515;27;96795;-76
2022/03/11 00:26:12;;;;;;;20.88;9.55;;;;;;;;;;5090596;27;97934;-75
2022/03/11 00:28:38;;;;;;;18.17;9.30;;;;;;;;;;5090501;27;95376;-75
2022/03/11 00:31:05;;;;;;;17.27;9.10;;;;;;;;;;5090530;27;97053;-75
2022/03/11 00:33:32;;;;;;;19.05;9.88;;;;;;;;;;5091078;27;97645;-76
2022/03/11 00:36:15;;;;;;;20.30;9.25;;;;;;;;;;5088372;27;95955;-74
2022/03/11 00:38:42;;;;;;;21.35;9.77;;;;;;;;;;5090947;27;96784;-75
2022/03/11 00:41:08;;;;;;;17.48;9.15;;;;;;;;;;5093538;27;97446;-75
2022/03/11 00:43:34;;;;;;;23.50;9.65;;;;;;;;;;5091465;27;97140;-75
2022/03/11 00:46:01;;;;;;;16.33;9.48;;;;;;;;;;5090389;27;97293;-76
2022/03/11 00:48:46;;;;;;;20.60;10.55;;;;;;;;;;5090234;27;95384;-75
2022/03/11 00:51:12;;;;;;;22.77;10.15;;;;;;;;;;5089883;27;96897;-76
2022/03/11 00:53:39;;;;;;;17.73;9.88;;;;;;;;;;5089843;27;96995;-76
2022/03/11 00:56:05;;;;;;;17.38;9.68;;;;;;;;;;5089916;27;95518;-76
2022/03/11 00:58:32;;;;;;;20.73;10.20;;;;;;;;;;5090344;27;96785;-76
2022/03/11 01:01:17;;;;;;;22.10;9.95;;;;;;;;;;5088747;27;97476;-76
2022/03/11 01:03:44;;;;;;;17.17;9.52;;;;;;;;;;5093709;27;95394;-76
2022/03/11 01:06:28;;;;;;;29.92;9.77;;;;;;;;;;5089805;27;95553;-75
2022/03/11 01:08:54;;;;;;;19.15;9.70;;;;;;;;;;5089985;27;96082;-75
2022/03/11 01:11:20;;;;;;;17.65;9.55;;;;;;;;;;5089387;27;96750;-75
2022/03/11 01:13:47;;;;;;;21.23;10.00;;;;;;;;;;5089807;27;97316;-76
2022/03/11 01:16:13;;;;;;;17.08;9.50;;;;;;;;;;5089165;27;96533;-75
2022/03/11 01:18:40;;;;;;;18.60;9.55;;;;;;;;;;5089812;27;96916;-74
2022/03/11 01:23:51;;;;;;;21.27;10.18;;;;;;;;;;5089424;27;95311;-76
2022/03/11 01:26:17;;;;;;;16.17;9.15;;;;;;;;;;5092415;27;96758;-74
2022/03/11 01:28:44;;;;;;;22.17;10.25;;;;;;;;;;5089320;27;95804;-74
2022/03/11 01:31:14;;;;;;;21.58;9.18;;;;;;;;;;5089060;27;97178;-75
2022/03/11 01:33:44;;;;;;;18.80;9.38;;;;;;;;;;5089748;27;96483;-74
2022/03/11 01:36:28;;;;;;;23.30;9.73;;;;;;;;;;5089743;27;95984;-75
2022/03/11 01:38:56;;;;;;;15.63;9.30;;;;;;;;;;5089608;27;97003;-76
2022/03/11 01:41:22;;;;;;;18.20;9.50;;;;;;;;;;5089251;27;97459;-74
2022/03/11 01:43:53;;;;;;;20.20;10.82;;;;;;;;;;5089551;27;95734;-74
2022/03/11 01:46:19;;;;;;;19.27;10.05;;;;;;;;;;5090638;27;95689;-75
2022/03/11 01:51:33;;;;;;;21.02;9.95;;;;;;;;;;5092034;27;95851;-75
2022/03/11 01:53:59;;;;;;;20.13;10.32;;;;;;;;;;5092420;27;97086;-74
2022/03/11 01:56:26;;;;;;;19.58;9.93;;;;;;;;;;5093000;27;95377;-74
2022/03/11 01:58:53;;;;;;;25.83;10.88;;;;;;;;;;5090711;27;96992;-76
2022/03/11 02:01:20;;;;;;;20.15;10.80;;;;;;;;;;5091254;27;97367;-75
2022/03/11 02:03:47;;;;;;;22.25;10.75;;;;;;;;;;5092244;27;95918;-76
2022/03/11 02:06:14;;;;;;;20.30;10.27;;;;;;;;;;5092105;27;96559;-76
2022/03/11 02:08:41;;;;;;;25.70;10.18;;;;;;;;;;5095370;27;97603;-76
2022/03/11 02:11:08;;;;;;;18.17;9.82;;;;;;;;;;5092516;27;96707;-76
2022/03/11 02:13:49;;;;;;;16.38;9.77;;;;;;;;;;5092295;27;97684;-75
2022/03/11 02:16:16;;;;;;;18.75;10.13;;;;;;;;;;5092685;27;95374;-75
2022/03/11 02:18:43;;;;;;;20.45;9.80;;;;;;;;;;5092144;27;96813;-75
2022/03/11 02:21:10;;;;;;;21.50;9.95;;;;;;;;;;5091879;27;96435;-75
2022/03/11 02:23:39;;;;;;;21.00;10.65;;;;;;;;;;5091666;27;95561;-75
2022/03/11 02:26:06;;;;;;;21.27;10.60;;;;;;;;;;5091890;27;96758;-75
2022/03/11 02:28:32;;;;;;;18.85;10.05;;;;;;;;;;5090897;27;95825;-75
2022/03/11 02:30:59;;;;;;;20.55;10.65;;;;;;;;;;5094595;27;95513;-75
2022/03/11 02:33:25;;;;;;;19.50;10.68;;;;;;;;;;5091858;27;97436;-75
2022/03/11 02:35:52;;;;;;;22.00;10.27;;;;;;;;;;5091899;27;95756;-76
2022/03/11 02:38:35;;;;;;;22.55;9.77;;;;;;;;;;5090919;27;95456;-76
2022/03/11 02:41:02;;;;;;;17.55;9.82;;;;;;;;;;5090239;27;96883;-75
2022/03/11 02:43:28;;;;;;;20.40;10.90;;;;;;;;;;5092462;27;95445;-75
2022/03/11 02:45:55;;;;;;;18.98;10.88;;;;;;;;;;5092099;27;96831;-75
2022/03/11 02:48:21;;;;;;;20.63;10.60;;;;;;;;;;5090751;27;97625;-75
2022/03/11 02:50:47;;;;;;;27.23;10.35;;;;;;;;;;5092001;27;95813;-74
2022/03/11 02:53:15;;;;;;;21.05;10.52;;;;;;;;;;5094849;27;96609;-75
2022/03/11 02:55:42;;;;;;;21.90;10.20;;;;;;;;;;5091289;27;95639;-74
2022/03/11 02:58:08;;;;;;;18.80;10.45;;;;;;;;;;5083247;27;96652;-74
2022/03/11 03:00:34;;;;;;;21.67;10.77;;;;;;;;;;5070527;27;97322;-75
2022/03/11 03:03:02;;;;;;;19.45;10.48;;;;;;;;;;5070644;27;95432;-74
2022/03/11 03:05:48;;;;;;;20.98;10.48;;;;;;;;;;5071312;27;96634;-74
2022/03/11 03:08:14;;;;;;;20.48;10.38;;;;;;;;;;5088840;27;97291;-74
2022/03/11 03:10:40;;;;;;;22.00;10.15;;;;;;;;;;5091011;27;95404;-76
2022/03/11 03:13:06;;;;;;;20.33;9.95;;;;;;;;;;5091314;27;96818;-76
2022/03/11 03:15:33;;;;;;;19.42;10.20;;;;;;;;;;5095031;27;97300;-75
2022/03/11 03:17:59;;;;;;;19.50;10.15;;;;;;;;;;5090258;27;95712;-76
2022/03/11 03:20:26;;;;;;;22.08;10.23;;;;;;;;;;5091290;27;97345;-75
2022/03/11 03:22:52;;;;;;;23.50;10.25;;;;;;;;;;5090816;27;95996;-76
2022/03/11 03:25:18;;;;;;;19.02;10.00;;;;;;;;;;5091184;27;96714;-75
2022/03/11 03:27:45;;;;;;;19.60;9.90;;;;;;;;;;5090789;27;97535;-74
2022/03/11 03:30:11;;;;;;;19.10;9.95;;;;;;;;;;5091023;27;95410;-75
2022/03/11 03:32:39;;;;;;;19.95;10.35;;;;;;;;;;5091936;27;97011;-75
2022/03/11 03:35:23;;;;;;;19.60;9.32;;;;;;;;;;5090001;27;96365;-74
2022/03/11 03:37:49;;;;;;;21.40;9.70;;;;;;;;;;5093636;27;95719;-74
2022/03/11 03:40:15;;;;;;;18.45;10.20;;;;;;;;;;5090701;27;97343;-75
2022/03/11 03:43:01;;;;;;;19.85;10.07;;;;;;;;;;5089409;27;95553;-75
2022/03/11 03:45:28;;;;;;;18.48;9.48;;;;;;;;;;5088593;27;97265;-74
2022/03/11 03:47:54;;;;;;;17.48;9.65;;;;;;;;;;5081577;27;97426;-76
2022/03/11 03:50:21;;;;;;;20.52;10.32;;;;;;;;;;5089859;27;95417;-75
2022/03/11 03:52:47;;;;;;;19.27;10.70;;;;;;;;;;5069756;27;96972;-76
2022/03/11 03:55:14;;;;;;;17.85;9.80;;;;;;;;;;5075953;27;96151;-75
2022/03/11 03:57:40;;;;;;;20.77;10.95;;;;;;;;;;5093964;27;95381;-76
2022/03/11 04:00:25;;;;;;;29.20;10.05;;;;;;;;;;5088677;27;97909;-75
2022/03/11 04:03:11;;;;;;;19.58;9.80;;;;;;;;;;5090084;27;97056;-76
2022/03/11 04:05:37;;;;;;;23.65;10.50;;;;;;;;;;5090255;27;96691;-75
2022/03/11 04:08:04;;;;;;;20.27;9.70;;;;;;;;;;5090173;27;97293;-75
2022/03/11 04:10:30;;;;;;;20.13;10.00;;;;;;;;;;5090788;27;95887;-76
2022/03/11 04:12:57;;;;;;;20.33;9.90;;;;;;;;;;5090291;27;96957;-74
2022/03/11 04:15:23;;;;;;;19.15;10.05;;;;;;;;;;5090528;27;97439;-75
2022/03/11 04:17:50;;;;;;;20.08;10.68;;;;;;;;;;5089197;27;95606;-76
2022/03/11 04:20:17;;;;;;;18.58;10.40;;;;;;;;;;5092440;27;96850;-75
2022/03/11 04:22:44;;;;;;;19.42;10.15;;;;;;;;;;5089927;27;95849;-74
2022/03/11 04:25:11;;;;;;;21.10;10.75;;;;;;;;;;5090113;27;95777;-75
2022/03/11 04:27:38;;;;;;;19.63;10.15;;;;;;;;;;5089656;27;97095;-75
2022/03/11 04:30:05;;;;;;;19.33;10.70;;;;;;;;;;5090285;27;95630;-74
2022/03/11 04:32:31;;;;;;;17.30;10.20;;;;;;;;;;5090131;27;95799;-75
2022/03/11 04:35:15;;;;;;;20.05;10.30;;;;;;;;;;5089448;27;95552;-74
2022/03/11 04:37:59;;;;;;;20.70;10.07;;;;;;;;;;5089841;27;95279;-76
2022/03/11 04:40:25;;;;;;;17.55;10.27;;;;;;;;;;5089853;27;97137;-75
2022/03/11 04:42:51;;;;;;;19.63;10.38;;;;;;;;;;5093235;27;96661;-75
2022/03/11 04:45:18;;;;;;;21.92;10.80;;;;;;;;;;5090040;27;97039;-76
2022/03/11 04:47:45;;;;;;;18.83;10.63;;;;;;;;;;5088907;27;97347;-75
2022/03/11 04:50:11;;;;;;;20.60;10.82;;;;;;;;;;5088619;27;95888;-76
2022/03/11 04:52:37;;;;;;;26.75;10.55;;;;;;;;;;5089813;27;97173;-75
2022/03/11 04:55:04;;;;;;;20.25;10.77;;;;;;;;;;5088759;27;97361;-75
2022/03/11 04:57:30;;;;;;;20.40;10.77;;;;;;;;;;5088528;27;95478;-75
2022/03/11 04:59:57;;;;;;;17.63;10.32;;;;;;;;;;5088202;27;97379;-74
2022/03/11 05:02:24;;;;;;;23.85;10.60;;;;;;;;;;5087348;27;97302;-74
2022/03/11 05:04:50;;;;;;;17.65;10.05;;;;;;;;;;5091614;27;95386;-75
2022/03/11 05:07:17;;;;;;;17.75;10.02;;;;;;;;;;5087960;27;97656;-76
2022/03/11 05:09:43;;;;;;;22.80;10.93;;;;;;;;;;5088188;27;95568;-75
2022/03/11 05:12:09;;;;;;;18.98;10.20;;;;;;;;;;5089143;27;96829;-74
2022/03/11 05:14:36;;;;;;;20.95;10.63;;;;;;;;;;5088984;27;97314;-75
2022/03/11 05:17:02;;;;;;;19.05;10.88;;;;;;;;;;5088959;27;95648;-75
2022/03/11 05:19:28;;;;;;;19.83;10.50;;;;;;;;;;5089494;27;97051;-76
2022/03/11 05:22:12;;;;;;;19.17;10.68;;;;;;;;;;5088634;27;95622;-74
2022/03/11 05:24:39;;;;;;;18.63;10.60;;;;;;;;;;5092187;27;95470;-73
2022/03/11 05:27:05;;;;;;;22.00;11.20;;;;;;;;;;5091030;27;97232;-75
2022/03/11 05:29:50;;;;;;;20.38;10.50;;;;;;;;;;5092718;27;95500;-72
2022/03/11 05:32:19;;;;;;;19.90;10.43;;;;;;;;;;5093001;27;97307;-72
2022/03/11 05:34:46;;;;;;;20.20;10.27;;;;;;;;;;5092614;27;97443;-74
2022/03/11 05:37:12;;;;;;;19.38;10.50;;;;;;;;;;5088854;27;95763;-72
2022/03/11 05:42:43;;;;;;;19.17;11.00;;;;;;;;;;5092104;27;97312;-73
2022/03/11 05:45:09;;;;;;;21.77;10.70;;;;;;;;;;5091021;27;95694;-76
2022/03/11 05:47:36;;;;;;;19.67;11.07;;;;;;;;;;5093206;27;97876;-75
2022/03/11 05:50:03;;;;;;;23.38;11.00;;;;;;;;;;5095063;27;95775;-76
2022/03/11 05:52:29;;;;;;;18.27;10.93;;;;;;;;;;5092300;27;96820;-75
2022/03/11 05:54:55;;;;;;;20.50;10.75;;;;;;;;;;5091831;27;96532;-75
2022/03/11 05:57:22;;;;;;;19.42;10.20;;;;;;;;;;5091654;27;95434;-74
2022/03/11 05:59:48;;;;;;;22.08;10.52;;;;;;;;;;5092164;27;97010;-75
2022/03/11 06:02:14;;;;;;;20.92;11.07;;;;;;;;;;5091894;27;97394;-76
2022/03/11 06:04:41;;;;;;;21.10;10.52;;;;;;;;;;5091959;27;95238;-77
2022/03/11 06:09:52;;;;;;;19.52;11.05;;;;;;;;;;5095957;27;97757;-75
2022/03/11 06:12:21;;;;;;;18.75;10.32;;;;;;;;;;5090381;27;97172;-74
2022/03/11 06:14:47;;;;;;;20.23;10.40;;;;;;;;;;5091207;27;96914;-75
2022/03/11 06:17:13;;;;;;;20.67;10.38;;;;;;;;;;5092387;27;95693;-74
2022/03/11 06:19:40;;;;;;;24.08;10.98;;;;;;;;;;5092309;27;96677;-74
2022/03/11 06:22:06;;;;;;;22.63;10.77;;;;;;;;;;5070396;27;97688;-74
2022/03/11 06:24:33;;;;;;;21.40;10.88;;;;;;;;;;5071244;27;95747;-75
2022/03/11 06:26:59;;;;;;;22.35;10.70;;;;;;;;;;5085849;27;96900;-74
2022/03/11 06:29:25;;;;;;;20.92;10.57;;;;;;;;;;5090659;27;97289;-74
2022/03/11 06:31:52;;;;;;;20.15;10.50;;;;;;;;;;5094963;27;95510;-76
2022/03/11 06:34:18;;;;;;;19.05;10.63;;;;;;;;;;5090642;27;97426;-75
2022/03/11 06:36:44;;;;;;;22.13;10.20;;;;;;;;;;5091919;27;95860;-76
2022/03/11 06:39:13;;;;;;;22.88;10.30;;;;;;;;;;5091452;27;96907;-75
2022/03/11 06:44:26;;;;;;;21.25;10.50;;;;;;;;;;5090793;27;95768;-75
2022/03/11 06:46:52;;;;;;;20.58;10.38;;;;;;;;;;5091775;27;97151;-75
2022/03/11 06:49:18;;;;;;;20.88;10.45;;;;;;;;;;5090483;27;96362;-75
2022/03/11 06:51:45;;;;;;;20.90;10.63;;;;;;;;;;5091746;27;95287;-74
2022/03/11 06:54:11;;;;;;;18.55;10.38;;;;;;;;;;5094536;27;96935;-75
2022/03/11 06:56:37;;;;;;;20.45;10.40;;;;;;;;;;5091451;27;95221;-75
2022/03/11 06:59:06;;;;;;;18.35;9.57;;;;;;;;;;5076991;27;95771;-76
2022/03/11 07:01:33;;;;;;;19.42;10.93;;;;;;;;;;5091404;27;97399;-75
2022/03/11 07:04:01;;;;;;;19.85;10.52;;;;;;;;;;5091749;27;95394;-75
2022/03/11 07:06:27;;;;;;;18.20;9.90;;;;;;;;;;5090739;27;96219;-74
2022/03/11 07:08:54;;;;;;;16.45;9.32;;;;;;;;;;5090876;27;97667;-74
2022/03/11 07:15:07;;;;;;;21.48;10.32;;;;;;;;;;5001610;27;1278491;-74
2022/03/11 07:17:34;;;;;;;19.98;10.20;;;;;;;;;;5045313;27;97209;-74
2022/03/11 07:20:18;;;;;;;23.02;9.90;;;;;;;;;;5043116;27;95805;-76
2022/03/11 07:22:47;;;;;;;22.60;10.43;;;;;;;;;;5026785;27;96591;-75
2022/03/11 07:25:15;;;;;;;22.13;10.90;;;;;;;;;;5032160;27;97243;-74
2022/03/11 07:27:41;;;;;;;19.70;10.60;;;;;;;;;;5036097;27;95390;-75
2022/03/11 07:30:11;;;;;;;19.48;10.88;;;;;;;;;;5053627;27;96617;-75
2022/03/11 07:32:38;;;;;;;21.15;10.63;;;;;;;;;;5045447;27;97640;-72
2022/03/11 07:35:05;;;;;;;21.58;10.60;;;;;;;;;;5046349;27;95562;-71
2022/03/11 07:37:31;;;;;;;22.15;10.43;;;;;;;;;;5044263;27;97328;-76
2022/03/11 18:06:44;;;;;;;33.33;14.88;;;;;;;;;;5051624;27;1291176;-76
2022/03/11 18:09:11;;;;;;;30.63;14.68;;;;;;;;;;5071823;27;97340;-74
2022/03/11 18:11:44;;;;;;;29.25;15.75;;;;;;;;;;5068009;27;95398;-74
2022/03/11 18:14:10;;;;;;;29.83;16.17;;;;;;;;;;5073029;27;96890;-74
2022/03/11 18:16:37;;;;;;;30.85;15.65;;;;;;;;;;5084274;27;97366;-74
2022/03/11 18:19:22;;;;;;;29.95;15.88;;;;;;;;;;5083916;27;95718;-72
2022/03/11 18:21:48;;;;;;;26.75;14.88;;;;;;;;;;5072763;27;97173;-73
2022/03/11 18:24:15;;;;;;;26.92;15.07;;;;;;;;;;5083757;27;97354;-72
2022/03/11 18:26:43;;;;;;;32.63;15.77;;;;;;;;;;5086927;27;95749;-72
2022/03/11 18:29:10;;;;;;;26.95;15.70;;;;;;;;;;5079889;27;97038;-75
2022/03/11 18:31:54;;;;;;;27.70;15.93;;;;;;;;;;5083042;27;95784;-73
2022/03/11 18:34:44;;;;;;;29.08;15.70;;;;;;;;;;5084890;27;96960;-73
2022/03/11 18:37:11;;;;;;;32.95;16.00;;;;;;;;;;5082775;27;97170;-74
2022/03/11 18:39:37;;;;;;;30.08;15.75;;;;;;;;;;5084712;27;95569;-72
2022/03/11 18:42:21;;;;;;;34.17;16.48;;;;;;;;;;5081801;27;95729;-73
2022/03/11 18:44:48;;;;;;;30.35;16.02;;;;;;;;;;5083915;27;97607;-73
2022/03/11 18:47:14;;;;;;;32.63;16.90;;;;;;;;;;5083696;27;95488;-73
2022/03/11 18:49:40;;;;;;;31.10;17.45;;;;;;;;;;5087538;27;96703;-73
2022/03/11 18:52:07;;;;;;;34.33;17.35;;;;;;;;;;5083827;27;95533;-73
2022/03/11 18:54:33;;;;;;;28.20;15.93;;;;;;;;;;5084582;27;96871;-73
2022/03/11 18:57:17;;;;;;;26.98;15.98;;;;;;;;;;5072647;27;95680;-73
2022/03/11 18:59:43;;;;;;;29.30;15.98;;;;;;;;;;5083917;27;95584;-74
2022/03/11 19:02:11;;;;;;;27.30;15.75;;;;;;;;;;5084174;27;95780;-73
2022/03/11 19:04:37;;;;;;;25.30;15.52;;;;;;;;;;5084331;27;97607;-74
2022/03/11 19:07:04;;;;;;;36.78;17.27;;;;;;;;;;5083043;27;95636;-74
2022/03/11 19:09:30;;;;;;;29.92;16.02;;;;;;;;;;5084796;27;96192;-74
2022/03/11 19:11:57;;;;;;;35.53;16.38;;;;;;;;;;5086471;27;96336;-74
2022/03/11 19:14:24;;;;;;;31.27;15.75;;;;;;;;;;5083812;27;96651;-74
2022/03/11 19:16:55;;;;;;;25.00;15.27;;;;;;;;;;5077179;27;97463;-73
2022/03/11 19:19:21;;;;;;;29.90;14.95;;;;;;;;;;5065159;27;95884;-74
2022/03/11 19:21:48;;;;;;;29.15;15.60;;;;;;;;;;5067178;27;95608;-74
2022/03/11 19:24:15;;;;;;;27.27;15.85;;;;;;;;;;5069161;27;97656;-73
2022/03/11 19:26:42;;;;;;;26.08;15.65;;;;;;;;;;5070060;27;95326;-73
2022/03/11 19:29:09;;;;;;;25.20;14.48;;;;;;;;;;5068648;27;96805;-74
2022/03/11 19:31:42;;;;;;;26.85;14.77;;;;;;;;;;5070125;27;97637;-73
2022/03/11 19:34:09;;;;;;;25.48;14.75;;;;;;;;;;5072873;27;95294;-75
2022/03/11 19:36:36;;;;;;;32.70;16.08;;;;;;;;;;5063039;27;96540;-74
2022/03/11 19:39:06;;;;;;;29.27;14.52;;;;;;;;;;5048804;27;96079;-75
2022/03/11 19:41:36;;;;;;;26.13;14.77;;;;;;;;;;5049722;27;97021;-74
2022/03/11 19:44:05;;;;;;;27.33;15.15;;;;;;;;;;5069069;27;98970;-75
2022/03/11 19:46:32;;;;;;;27.83;14.75;;;;;;;;;;5069966;27;95516;-74
2022/03/11 19:48:58;;;;;;;30.55;14.85;;;;;;;;;;5068777;27;96773;-74
2022/03/11 19:51:44;;;;;;;26.83;14.73;;;;;;;;;;5070019;27;97384;-74
2022/03/11 19:54:10;;;;;;;28.38;15.43;;;;;;;;;;5047178;27;95815;-74
2022/03/11 19:56:37;;;;;;;27.80;14.75;;;;;;;;;;5051163;27;97329;-75
2022/03/11 19:59:21;;;;;;;28.10;15.20;;;;;;;;;;5047387;27;95487;-74
2022/03/11 20:04:32;;;;;;;31.83;13.77;;;;;;;;;;5068661;27;97653;-74
2022/03/11 20:06:59;;;;;;;34.10;15.13;;;;;;;;;;5069742;27;95815;-72
2022/03/11 20:09:27;;;;;;;28.80;14.25;;;;;;;;;;5067908;27;96920;-73
2022/03/11 20:11:53;;;;;;;29.73;15.38;;;;;;;;;;5062289;27;97423;-74
2022/03/11 20:14:20;;;;;;;29.73;14.45;;;;;;;;;;5052737;27;95957;-75
2022/03/11 20:16:47;;;;;;;24.67;14.30;;;;;;;;;;5062641;27;96733;-73
2022/03/11 20:19:14;;;;;;;26.67;13.98;;;;;;;;;;5070833;27;95457;-73
2022/03/11 20:21:41;;;;;;;31.52;14.10;;;;;;;;;;5067432;27;96811;-73
2022/03/11 20:24:08;;;;;;;25.33;13.68;;;;;;;;;;5051587;27;96179;-72
2022/03/11 20:26:35;;;;;;;28.70;13.80;;;;;;;;;;5069866;27;95409;-73
2022/03/11 20:29:05;;;;;;;27.38;14.23;;;;;;;;;;5068557;27;96832;-73
2022/03/11 20:31:34;;;;;;;27.88;13.75;;;;;;;;;;5069480;27;96429;-74
2022/03/11 20:34:18;;;;;;;23.60;12.65;;;;;;;;;;5067130;27;95528;-72
2022/03/11 20:36:45;;;;;;;25.75;13.68;;;;;;;;;;5069187;27;96733;-75
2022/03/11 20:39:11;;;;;;;26.90;13.18;;;;;;;;;;5071671;27;96321;-73
2022/03/11 20:41:38;;;;;;;24.23;12.82;;;;;;;;;;5069798;27;96919;-74
2022/03/11 20:44:04;;;;;;;23.45;13.73;;;;;;;;;;5068570;27;97301;-73
2022/03/11 20:46:31;;;;;;;25.98;12.52;;;;;;;;;;5069440;27;95720;-73
2022/03/11 20:48:57;;;;;;;25.52;13.60;;;;;;;;;;5069196;27;97175;-75
2022/03/11 20:51:24;;;;;;;28.92;14.05;;;;;;;;;;5068600;27;97318;-73
2022/03/11 20:54:08;;;;;;;21.50;13.00;;;;;;;;;;5066848;27;95256;-75
2022/03/11 20:56:34;;;;;;;28.50;13.27;;;;;;;;;;5069217;27;97124;-74
2022/03/11 21:01:46;;;;;;;26.75;12.48;;;;;;;;;;5070610;27;95269;-73
2022/03/11 21:04:15;;;;;;;24.25;12.43;;;;;;;;;;5069445;27;96345;-73
2022/03/11 21:06:43;;;;;;;29.15;13.63;;;;;;;;;;5068716;27;95625;-73
2022/03/11 21:09:09;;;;;;;22.05;12.75;;;;;;;;;;5068004;27;96840;-74
2022/03/11 21:11:40;;;;;;;24.80;12.52;;;;;;;;;;5068013;27;97380;-74
2022/03/11 21:14:24;;;;;;;24.42;12.43;;;;;;;;;;5065724;27;95648;-74
2022/03/11 21:16:50;;;;;;;19.88;12.02;;;;;;;;;;5068962;27;97189;-74
2022/03/11 21:19:20;;;;;;;22.88;13.10;;;;;;;;;;5069134;27;97294;-74
2022/03/11 21:21:47;;;;;;;22.65;11.90;;;;;;;;;;5070470;27;95830;-74
2022/03/11 21:24:13;;;;;;;21.80;12.48;;;;;;;;;;5072889;27;96781;-75
2022/03/11 21:26:40;;;;;;;24.23;12.63;;;;;;;;;;5069264;27;95618;-74
2022/03/11 21:29:11;;;;;;;22.52;12.13;;;;;;;;;;5069477;27;96571;-74
2022/03/11 21:31:41;;;;;;;22.00;12.50;;;;;;;;;;5069322;27;97355;-74
2022/03/11 21:34:08;;;;;;;23.13;12.35;;;;;;;;;;5069295;27;95366;-74
2022/03/11 21:36:52;;;;;;;24.25;12.52;;;;;;;;;;5068810;27;95256;-74
2022/03/11 21:39:19;;;;;;;25.65;12.25;;;;;;;;;;5068878;27;97366;-74
2022/03/11 21:41:45;;;;;;;27.08;12.45;;;;;;;;;;5069198;27;95847;-74
2022/03/11 21:44:12;;;;;;;20.90;11.82;;;;;;;;;;5069443;27;97089;-74
2022/03/11 21:47:14;;;;;;;21.75;11.57;;;;;;;;;;5069911;27;95620;-74
2022/03/11 21:49:41;;;;;;;26.80;12.77;;;;;;;;;;5069877;27;96733;-74
2022/03/11 21:52:25;;;;;;;22.00;11.98;;;;;;;;;;5068205;27;95151;-75
2022/03/11 21:55:09;;;;;;;24.17;12.40;;;;;;;;;;5065757;27;95161;-74
2022/03/11 21:57:36;;;;;;;24.08;11.75;;;;;;;;;;5069634;27;96796;-74
2022/03/11 22:00:04;;;;;;;21.95;12.00;;;;;;;;;;5069102;27;97451;-74
2022/03/11 22:02:32;;;;;;;20.15;12.20;;;;;;;;;;5068893;27;95621;-74
2022/03/11 22:07:43;;;;;;;23.33;12.00;;;;;;;;;;5069026;27;97395;-74
2022/03/11 22:10:10;;;;;;;26.20;12.00;;;;;;;;;;5071103;27;95297;-75
2022/03/11 22:12:36;;;;;;;28.35;11.80;;;;;;;;;;5067695;27;97383;-75
2022/03/11 22:15:03;;;;;;;19.90;11.85;;;;;;;;;;5068867;27;95543;-74
2022/03/11 22:17:30;;;;;;;28.30;12.38;;;;;;;;;;5068550;27;97034;-73
2022/03/11 22:19:56;;;;;;;21.02;11.77;;;;;;;;;;5068847;27;97167;-76
2022/03/11 22:22:22;;;;;;;25.27;11.68;;;;;;;;;;5068453;27;95506;-73
2022/03/11 22:24:50;;;;;;;20.95;11.75;;;;;;;;;;5069202;27;96679;-73
2022/03/11 22:30:05;;;;;;;28.05;11.68;;;;;;;;;;5051365;27;95998;-75
2022/03/11 22:32:32;;;;;;;27.58;11.43;;;;;;;;;;5048512;27;97480;-74
2022/03/11 22:34:58;;;;;;;19.15;11.73;;;;;;;;;;5048177;27;95878;-74
2022/03/11 22:37:26;;;;;;;21.23;12.13;;;;;;;;;;5048106;27;96722;-75
2022/03/11 22:39:53;;;;;;;20.80;11.45;;;;;;;;;;5048422;27;97264;-76
2022/03/11 22:42:19;;;;;;;20.02;11.98;;;;;;;;;;5050256;27;95404;-75
2022/03/11 22:45:05;;;;;;;22.65;12.18;;;;;;;;;;5068323;27;96775;-74
2022/03/11 22:47:37;;;;;;;25.80;11.75;;;;;;;;;;5068945;27;97715;-75
2022/03/11 22:50:27;;;;;;;18.55;11.35;;;;;;;;;;5069049;27;96761;-75
2022/03/11 22:52:54;;;;;;;21.88;11.23;;;;;;;;;;5074676;27;96874;-75
2022/03/11 22:55:28;;;;;;;21.92;11.38;;;;;;;;;;5072007;27;95549;-74
2022/03/11 22:57:57;;;;;;;21.40;11.80;;;;;;;;;;5071620;27;95715;-75
2022/03/11 23:00:44;;;;;;;18.63;11.35;;;;;;;;;;5072390;27;97327;-74
2022/03/11 23:03:21;;;;;;;21.05;11.18;;;;;;;;;;5070983;27;95326;-74
2022/03/11 23:05:48;;;;;;;22.55;11.48;;;;;;;;;;5070971;27;96782;-74
2022/03/11 23:11:01;;;;;;;25.65;11.48;;;;;;;;;;5071942;27;95242;-74
2022/03/11 23:16:48;;;;;;;20.80;11.27;;;;;;;;;;5075213;27;95623;-72
2022/03/11 23:19:15;;;;;;;21.42;12.35;;;;;;;;;;5070222;27;96592;-75
2022/03/11 23:21:59;;;;;;;24.50;11.93;;;;;;;;;;5071429;27;95536;-75
2022/03/11 23:24:43;;;;;;;24.02;11.65;;;;;;;;;;5071983;27;95558;-75
2022/03/11 23:27:10;;;;;;;27.25;11.88;;;;;;;;;;5070759;27;96539;-74
2022/03/11 23:29:36;;;;;;;19.92;11.48;;;;;;;;;;5072189;27;97962;-74
2022/03/11 23:32:21;;;;;;;21.65;10.95;;;;;;;;;;5070680;27;95884;-74
2022/03/11 23:34:48;;;;;;;23.35;10.88;;;;;;;;;;5071536;27;96865;-74
2022/03/11 23:37:20;;;;;;;27.42;11.77;;;;;;;;;;5070598;27;96907;-74
2022/03/11 23:40:11;;;;;;;22.95;11.98;;;;;;;;;;5072224;27;95215;-76
2022/03/11 23:42:38;;;;;;;22.30;12.20;;;;;;;;;;5071861;27;97437;-75
2022/03/11 23:45:10;;;;;;;19.48;11.88;;;;;;;;;;5071052;27;95302;-75
2022/03/11 23:47:37;;;;;;;24.48;12.23;;;;;;;;;;5070512;27;95850;-73
2022/03/11 23:50:04;;;;;;;24.33;11.88;;;;;;;;;;5070021;27;97548;-74
2022/03/11 23:52:30;;;;;;;18.55;11.38;;;;;;;;;;5071784;27;95604;-74
2022/03/11 23:54:57;;;;;;;23.92;11.90;;;;;;;;;;5071149;27;97276;-73
2022/03/11 23:57:40;;;;;;;23.25;11.13;;;;;;;;;;5071110;27;95470;-75
